Time,TemperatureF,DewpointF,PressureIn,WindDirection,WindDirectionDegrees,WindSpeedMPH,WindSpeedGustMPH,Humidity,HourlyPrecipIn,Conditions,Clouds,dailyrainin,SolarRadiationWatts/m^2,SoftwareType,DateUTC
2013-04-22 00:01:00,67.1,34.6,29.94,SE,130,1.2,3.5,30,0.00,CLR,,0.00,0.0,WeatherDisplay:10.37,2013-04-22 07:01:00,
2013-04-22 00:06:00,67.2,36.3,29.94,SE,130,1.3,2.3,32,0.00,CLR,,0.00,0.0,WeatherDisplay:10.37,2013-04-22 07:06:00,
2013-04-22 00:11:00,67.1,37.8,29.94,SSE,149,0.6,2.3,34,0.00,CLR,,0.00,0.0,WeatherDisplay:10.37,2013-04-22 07:11:00,
2013-04-22 00:16:00,66.8,37.5,29.94,SSE,149,0.5,2.3,34,0.00,CLR,,0.00,0.0,WeatherDisplay:10.37,2013-04-22 07:16:00,
2013-04-22 00:21:00,66.5,37.2,29.94,SSE,149,0.2,1.2,34,0.00,CLR,,0.00,0.0,WeatherDisplay:10.37,2013-04-22 07:21:00,
2013-04-22 00:26:00,66.3,37.1,29.94,SSE,147,4.3,5.0,34,0.00,CLR,,0.00,0.0,WeatherDisplay:10.37,2013-04-22 07:26:00,
2013-04-22 00:31:00,67.0,33.7,29.94,SE,129,4.7,5.8,29,0.00,CLR,,0.00,0.0,WeatherDisplay:10.37,2013-04-22 07:31:00,
2013-04-22 00:36:00,68.3,33.0,29.94,SE,136,3.9,4.6,27,0.00,CLR,,0.00,0.0,WeatherDisplay:10.37,2013-04-22 07:36:00,
2013-04-22 00:41:00,69.6,32.2,29.94,SE,135,3.8,5.0,25,0.00,CLR,,0.00,0.0,WeatherDisplay:10.37,2013-04-22 07:41:00,
2013-04-22 00:46:00,70.5,31.9,29.94,SE,137,3.5,4.0,24,0.00,CLR,,0.00,0.0,WeatherDisplay:10.37,2013-04-22 07:46:00,
2013-04-22 00:51:00,71.2,31.5,29.94,SE,136,3.1,3.5,23,0.00,CLR,,0.00,0.0,WeatherDisplay:10.37,2013-04-22 07:51:00,
2013-04-22 00:56:00,71.8,32.0,29.94,SE,135,2.1,3.5,23,0.00,CLR,,0.00,0.0,WeatherDisplay:10.37,2013-04-22 07:56:00,
2013-04-22 01:01:00,71.9,32.1,29.94,SE,136,0.4,1.2,23,0.00,CLR,,0.00,0.0,WeatherDisplay:10.37,2013-04-22 08:01:00,
2013-04-22 01:06:00,71.7,31.9,29.93,SE,136,0.7,1.2,23,0.00,CLR,,0.00,0.0,WeatherDisplay:10.37,2013-04-22 08:06:00,
2013-04-22 01:11:00,71.4,31.6,29.93,SE,136,0.5,1.2,23,0.00,CLR,,0.00,0.0,WeatherDisplay:10.37,2013-04-22 08:11:00,
2013-04-22 01:16:00,71.0,31.3,29.93,SE,136,0.6,1.2,23,0.00,CLR,,0.00,0.0,WeatherDisplay:10.37,2013-04-22 08:16:00,
2013-04-22 01:21:00,70.6,31.0,29.93,SE,137,0.7,1.2,23,0.00,CLR,,0.00,0.0,WeatherDisplay:10.37,2013-04-22 08:21:00,
2013-04-22 01:26:00,70.3,31.8,29.93,SE,136,1.1,2.3,24,0.00,CLR,,0.00,0.0,WeatherDisplay:10.37,2013-04-22 08:26:00,
2013-04-22 01:31:00,69.9,34.4,29.93,SE,135,1.9,2.3,27,0.00,CLR,,0.00,0.0,WeatherDisplay:10.37,2013-04-22 08:31:00,
2013-04-22 01:36:00,69.4,34.9,29.92,SE,136,0.0,0.0,28,0.00,CLR,,0.00,0.0,WeatherDisplay:10.37,2013-04-22 08:36:00,
2013-04-22 01:41:00,68.9,33.5,29.92,SE,137,0.0,0.0,27,0.00,CLR,,0.00,0.0,WeatherDisplay:10.37,2013-04-22 08:41:00,
2013-04-22 01:46:00,68.6,33.3,29.92,SE,137,0.0,0.0,27,0.00,CLR,,0.00,0.0,WeatherDisplay:10.37,2013-04-22 08:46:00,
2013-04-22 01:51:00,68.3,33.9,29.92,SE,136,1.9,3.0,28,0.00,CLR,,0.00,0.0,WeatherDisplay:10.37,2013-04-22 08:51:00,
2013-04-22 01:56:00,67.9,34.4,29.92,SSE,156,1.8,2.3,29,0.00,CLR,,0.00,0.0,WeatherDisplay:10.37,2013-04-22 08:56:00,
2013-04-22 02:01:00,67.5,35.0,29.92,SSE,156,1.3,2.3,30,0.00,CLR,,0.00,0.0,WeatherDisplay:10.37,2013-04-22 09:01:00,
2013-04-22 02:06:00,67.2,34.7,29.91,SSE,156,1.2,2.3,30,0.00,CLR,,0.00,0.0,WeatherDisplay:10.37,2013-04-22 09:06:00,
2013-04-22 02:11:00,66.9,33.6,29.91,SSE,156,0.5,1.2,29,0.00,CLR,,0.00,0.0,WeatherDisplay:10.37,2013-04-22 09:11:00,
2013-04-22 02:16:00,66.7,32.5,29.91,SSE,156,0.4,1.2,28,0.00,CLR,,0.00,0.0,WeatherDisplay:10.37,2013-04-22 09:16:00,
2013-04-22 02:21:00,66.5,32.4,29.91,SSE,156,1.3,2.3,28,0.00,CLR,,0.00,0.0,WeatherDisplay:10.37,2013-04-22 09:21:00,
2013-04-22 02:26:00,66.3,33.9,29.91,SSE,156,1.4,2.3,30,0.00,CLR,,0.00,0.0,WeatherDisplay:10.37,2013-04-22 09:26:00,
2013-04-22 02:31:00,66.2,33.8,29.91,SSE,156,1.8,2.3,30,0.00,CLR,,0.00,0.0,WeatherDisplay:10.37,2013-04-22 09:31:00,
2013-04-22 02:36:00,66.0,34.5,29.91,SSE,156,1.9,2.3,31,0.00,CLR,,0.00,0.0,WeatherDisplay:10.37,2013-04-22 09:36:00,
2013-04-22 02:41:00,65.7,34.2,29.90,SSE,156,1.7,2.3,31,0.00,CLR,,0.00,0.0,WeatherDisplay:10.37,2013-04-22 09:41:00,
2013-04-22 02:46:00,65.4,34.0,29.90,SSE,156,0.4,1.2,31,0.00,CLR,,0.00,0.0,WeatherDisplay:10.37,2013-04-22 09:46:00,
2013-04-22 02:51:00,65.2,33.8,29.90,SSE,156,0.0,0.0,31,0.00,CLR,,0.00,0.0,WeatherDisplay:10.37,2013-04-22 09:51:00,
2013-04-22 02:56:00,65.1,32.9,29.90,SSE,156,0.1,0.0,30,0.00,CLR,,0.00,0.0,WeatherDisplay:10.37,2013-04-22 09:56:00,
2013-04-22 03:01:00,65.4,33.1,29.90,SSE,156,0.3,2.3,30,0.00,CLR,,0.00,0.0,WeatherDisplay:10.37,2013-04-22 10:01:00,
2013-04-22 03:06:00,65.9,33.6,29.90,SSE,156,1.4,2.3,30,0.00,CLR,,0.00,0.0,WeatherDisplay:10.37,2013-04-22 10:06:00,
2013-04-22 03:11:00,66.3,33.1,29.90,SSE,156,0.0,1.2,29,0.00,CLR,,0.00,0.0,WeatherDisplay:10.37,2013-04-22 10:11:00,
2013-04-22 03:16:00,66.6,33.3,29.90,NNE,21,3.4,3.5,29,0.00,CLR,,0.00,0.0,WeatherDisplay:10.37,2013-04-22 10:16:00,
2013-04-22 03:21:00,66.5,34.9,29.90,North,8,3.1,3.5,31,0.00,CLR,,0.00,0.0,WeatherDisplay:10.37,2013-04-22 10:21:00,
2013-04-22 03:26:00,66.2,34.7,29.90,North,8,0.7,1.2,31,0.00,CLR,,0.00,0.0,WeatherDisplay:10.37,2013-04-22 10:26:00,
2013-04-22 03:31:00,65.8,34.3,29.90,North,8,0.0,0.0,31,0.00,CLR,,0.00,0.0,WeatherDisplay:10.37,2013-04-22 10:31:00,
2013-04-22 03:36:00,65.3,34.7,29.90,North,8,0.0,0.0,32,0.00,CLR,,0.00,0.0,WeatherDisplay:10.37,2013-04-22 10:36:00,
2013-04-22 03:41:00,65.0,35.2,29.90,North,8,1.1,2.3,33,0.00,CLR,,0.00,0.0,WeatherDisplay:10.37,2013-04-22 10:41:00,
2013-04-22 03:46:00,64.5,34.7,29.90,North,8,0.0,0.0,33,0.00,CLR,,0.00,0.0,WeatherDisplay:10.37,2013-04-22 10:46:00,
2013-04-22 03:51:00,64.2,34.5,29.90,North,8,1.2,1.2,33,0.00,CLR,,0.00,0.0,WeatherDisplay:10.37,2013-04-22 10:51:00,
2013-04-22 03:56:00,63.9,34.2,29.90,SSE,156,2.8,3.5,33,0.00,CLR,,0.00,0.0,WeatherDisplay:10.37,2013-04-22 10:56:00,
2013-04-22 04:01:00,63.6,39.5,29.91,NNW,328,1.5,3.5,41,0.00,CLR,,0.00,0.0,WeatherDisplay:10.37,2013-04-22 11:01:00,
2013-04-22 04:06:00,62.9,43.4,29.91,NW,320,3.7,5.0,49,0.00,CLR,,0.00,0.0,WeatherDisplay:10.37,2013-04-22 11:06:00,
2013-04-22 04:11:00,62.1,43.7,29.91,South,187,4.0,5.0,51,0.00,CLR,,0.00,0.0,WeatherDisplay:10.37,2013-04-22 11:11:00,
2013-04-22 04:16:00,61.2,45.8,29.91,SE,142,3.9,4.6,57,0.00,CLR,,0.00,0.0,WeatherDisplay:10.37,2013-04-22 11:16:00,
2013-04-22 04:21:00,60.6,43.9,29.91,SE,143,0.1,2.3,54,0.00,CLR,,0.00,0.0,WeatherDisplay:10.37,2013-04-22 11:21:00,
2013-04-22 04:26:00,60.5,39.6,29.91,SE,142,0.3,1.2,46,0.00,CLR,,0.00,0.0,WeatherDisplay:10.37,2013-04-22 11:26:00,
2013-04-22 04:31:00,60.7,38.1,29.91,SE,143,0.0,0.0,43,0.00,CLR,,0.00,0.0,WeatherDisplay:10.37,2013-04-22 11:31:00,
2013-04-22 04:36:00,61.3,36.8,29.90,SE,143,0.7,2.3,40,0.00,CLR,,0.00,0.0,WeatherDisplay:10.37,2013-04-22 11:36:00,
2013-04-22 04:41:00,62.0,36.7,29.91,SE,143,0.9,1.2,39,0.00,CLR,,0.00,0.0,WeatherDisplay:10.37,2013-04-22 11:41:00,
2013-04-22 04:46:00,62.6,36.6,29.91,SE,143,1.2,3.5,38,0.00,CLR,,0.00,0.0,WeatherDisplay:10.37,2013-04-22 11:46:00,
2013-04-22 04:51:00,62.9,35.5,29.90,SE,143,0.7,2.0,36,0.00,CLR,,0.00,0.0,WeatherDisplay:10.37,2013-04-22 11:51:00,
2013-04-22 04:56:00,63.2,35.8,29.90,SE,143,2.3,3.5,36,0.00,CLR,,0.00,0.0,WeatherDisplay:10.37,2013-04-22 11:56:00,
2013-04-22 05:01:00,63.8,34.1,29.90,SE,143,3.1,3.5,33,0.00,CLR,,0.00,0.0,WeatherDisplay:10.37,2013-04-22 12:01:00,
2013-04-22 05:06:00,64.7,33.3,29.90,SE,128,2.4,3.5,31,0.00,CLR,,0.00,0.0,WeatherDisplay:10.37,2013-04-22 12:06:00,
2013-04-22 05:11:00,66.0,32.8,29.90,SE,127,3.4,3.5,29,0.00,CLR,,0.00,0.0,WeatherDisplay:10.37,2013-04-22 12:11:00,
2013-04-22 05:16:00,67.9,33.6,29.90,SE,128,3.0,3.5,28,0.00,CLR,,0.00,0.0,WeatherDisplay:10.37,2013-04-22 12:16:00,
2013-04-22 05:21:00,69.2,33.8,29.90,SE,128,3.8,4.0,27,0.00,CLR,,0.00,0.0,WeatherDisplay:10.37,2013-04-22 12:21:00,
2013-04-22 05:26:00,69.8,34.3,29.91,SE,142,3.4,4.0,27,0.00,CLR,,0.00,0.0,WeatherDisplay:10.37,2013-04-22 12:26:00,
2013-04-22 05:31:00,70.0,33.5,29.91,SE,138,3.5,4.0,26,0.00,CLR,,0.00,0.0,WeatherDisplay:10.37,2013-04-22 12:31:00,
2013-04-22 05:36:00,70.0,33.5,29.91,ESE,120,3.4,4.0,26,0.00,CLR,,0.00,0.0,WeatherDisplay:10.37,2013-04-22 12:36:00,
2013-04-22 05:41:00,70.3,33.8,29.91,East,85,2.5,4.6,26,0.00,CLR,,0.00,0.0,WeatherDisplay:10.37,2013-04-22 12:41:00,
2013-04-22 05:46:00,70.3,34.7,29.91,East,88,2.1,3.5,27,0.00,CLR,,0.00,0.0,WeatherDisplay:10.37,2013-04-22 12:46:00,
2013-04-22 05:51:00,70.0,34.5,29.91,ESE,115,2.9,4.6,27,0.00,CLR,,0.00,0.0,WeatherDisplay:10.37,2013-04-22 12:51:00,
2013-04-22 05:56:00,69.7,36.9,29.91,East,87,4.8,5.8,30,0.00,CLR,,0.00,0.0,WeatherDisplay:10.37,2013-04-22 12:56:00,
2013-04-22 06:01:00,69.7,36.9,29.91,ESE,104,5.1,6.9,30,0.00,CLR,,0.00,0.0,WeatherDisplay:10.37,2013-04-22 13:01:00,
2013-04-22 06:06:00,69.5,36.7,29.91,SE,126,3.0,6.9,30,0.00,CLR,,0.00,0.0,WeatherDisplay:10.37,2013-04-22 13:06:00,
2013-04-22 06:11:00,69.5,36.7,29.91,ESE,108,3.7,4.6,30,0.00,CLR,,0.00,0.0,WeatherDisplay:10.37,2013-04-22 13:11:00,
2013-04-22 06:16:00,69.5,37.5,29.91,ENE,66,3.8,6.9,31,0.00,CLR,,0.00,0.0,WeatherDisplay:10.37,2013-04-22 13:16:00,
2013-04-22 06:21:00,69.2,38.1,29.91,East,99,2.8,5.8,32,0.00,CLR,,0.00,0.0,WeatherDisplay:10.37,2013-04-22 13:21:00,
2013-04-22 06:26:00,69.1,38.0,29.92,East,96,1.7,3.5,32,0.00,CLR,,0.00,5.0,WeatherDisplay:10.37,2013-04-22 13:26:00,
2013-04-22 06:31:00,69.0,38.7,29.92,ESE,103,2.8,4.6,33,0.00,CLR,,0.00,7.0,WeatherDisplay:10.37,2013-04-22 13:31:00,
2013-04-22 06:36:00,68.9,38.6,29.92,ESE,104,3.5,4.6,33,0.00,CLR,,0.00,9.0,WeatherDisplay:10.37,2013-04-22 13:36:00,
2013-04-22 06:41:00,68.7,39.2,29.92,East,80,3.3,5.8,34,0.00,CLR,,0.00,12.0,WeatherDisplay:10.37,2013-04-22 13:41:00,
2013-04-22 06:46:00,68.4,38.9,29.92,ENE,66,3.4,4.6,34,0.00,CLR,,0.00,14.0,WeatherDisplay:10.37,2013-04-22 13:46:00,
2013-04-22 06:51:00,68.1,39.4,29.92,East,99,4.5,5.8,35,0.00,CLR,,0.00,18.0,WeatherDisplay:10.37,2013-04-22 13:51:00,
2013-04-22 06:56:00,68.1,40.1,29.92,ENE,73,4.4,5.8,36,0.00,CLR,,0.00,19.0,WeatherDisplay:10.37,2013-04-22 13:56:00,
2013-04-22 07:01:00,67.9,39.9,29.92,East,80,2.8,3.5,36,0.00,CLR,,0.00,21.0,WeatherDisplay:10.37,2013-04-22 14:01:00,
2013-04-22 07:06:00,67.8,39.9,29.92,ENE,62,3.2,4.6,36,0.00,CLR,,0.00,23.0,WeatherDisplay:10.37,2013-04-22 14:06:00,
2013-04-22 07:11:00,67.8,39.9,29.93,ENE,68,3.1,4.0,36,0.00,CLR,,0.00,26.0,WeatherDisplay:10.37,2013-04-22 14:11:00,
2013-04-22 07:16:00,67.8,40.6,29.93,NE,52,1.8,5.8,37,0.00,CLR,,0.00,54.0,WeatherDisplay:10.37,2013-04-22 14:16:00,
2013-04-22 07:21:00,67.8,40.6,29.93,East,80,3.2,4.6,37,0.00,CLR,,0.00,40.0,WeatherDisplay:10.37,2013-04-22 14:21:00,
2013-04-22 07:26:00,67.9,40.7,29.93,NE,51,5.1,8.1,37,0.00,CLR,,0.00,32.0,WeatherDisplay:10.37,2013-04-22 14:26:00,
2013-04-22 07:31:00,68.3,41.0,29.93,NNE,28,4.8,6.9,37,0.00,CLR,,0.00,33.0,WeatherDisplay:10.37,2013-04-22 14:31:00,
2013-04-22 07:36:00,68.8,40.7,29.93,East,91,2.4,3.5,36,0.00,CLR,,0.00,35.0,WeatherDisplay:10.37,2013-04-22 14:36:00,
2013-04-22 07:41:00,69.4,41.3,29.93,ESE,116,2.0,3.5,36,0.00,CLR,,0.00,51.0,WeatherDisplay:10.37,2013-04-22 14:41:00,
2013-04-22 07:46:00,69.9,41.7,29.93,ENE,71,2.4,4.6,36,0.00,CLR,,0.00,102.0,WeatherDisplay:10.37,2013-04-22 14:46:00,
2013-04-22 07:51:00,70.4,41.4,29.93,ENE,61,4.2,6.0,35,0.00,CLR,,0.00,169.0,WeatherDisplay:10.37,2013-04-22 14:51:00,
2013-04-22 07:56:00,70.8,41.8,29.94,East,89,4.6,8.1,35,0.00,CLR,,0.00,195.0,WeatherDisplay:10.37,2013-04-22 14:56:00,
2013-04-22 08:01:00,71.1,41.3,29.94,NE,43,5.7,8.1,34,0.00,CLR,,0.00,167.0,WeatherDisplay:10.37,2013-04-22 15:01:00,
2013-04-22 08:06:00,71.3,42.2,29.94,NE,43,1.9,4.6,35,0.00,CLR,,0.00,118.0,WeatherDisplay:10.37,2013-04-22 15:06:00,
2013-04-22 08:11:00,71.7,41.8,29.94,ENE,65,7.2,11.5,34,0.00,CLR,,0.00,58.0,WeatherDisplay:10.37,2013-04-22 15:11:00,
2013-04-22 08:16:00,72.1,42.2,29.94,ENE,68,2.9,5.0,34,0.00,CLR,,0.00,44.0,WeatherDisplay:10.37,2013-04-22 15:16:00,
2013-04-22 08:21:00,72.3,43.1,29.94,East,97,1.7,4.6,35,0.00,CLR,,0.00,44.0,WeatherDisplay:10.37,2013-04-22 15:21:00,
2013-04-22 08:26:00,72.6,42.6,29.95,ESE,110,3.3,5.8,34,0.00,CLR,,0.00,46.0,WeatherDisplay:10.37,2013-04-22 15:26:00,
2013-04-22 08:31:00,72.9,42.9,29.95,ENE,70,2.4,4.6,34,0.00,CLR,,0.00,46.0,WeatherDisplay:10.37,2013-04-22 15:31:00,
2013-04-22 08:36:00,73.2,43.9,29.95,NE,35,2.0,3.0,35,0.00,CLR,,0.00,47.0,WeatherDisplay:10.37,2013-04-22 15:36:00,
2013-04-22 08:41:00,73.6,43.5,29.95,NE,37,3.4,4.6,34,0.00,CLR,,0.00,47.0,WeatherDisplay:10.37,2013-04-22 15:41:00,
2013-04-22 08:46:00,74.0,44.6,29.95,NNE,28,1.8,3.0,35,0.00,CLR,,0.00,49.0,WeatherDisplay:10.37,2013-04-22 15:46:00,
2013-04-22 08:51:00,74.5,42.7,29.95,NE,45,5.1,6.0,32,0.00,CLR,,0.00,49.0,WeatherDisplay:10.37,2013-04-22 15:51:00,
2013-04-22 08:56:00,74.8,42.1,29.95,East,82,1.9,3.5,31,0.00,CLR,,0.00,51.0,WeatherDisplay:10.37,2013-04-22 15:56:00,
2013-04-22 09:01:00,75.0,43.1,29.94,NE,53,4.0,4.6,32,0.00,CLR,,0.00,53.0,WeatherDisplay:10.37,2013-04-22 16:01:00,
2013-04-22 09:06:00,75.3,43.4,29.94,NNE,31,3.3,4.6,32,0.00,CLR,,0.00,54.0,WeatherDisplay:10.37,2013-04-22 16:06:00,
2013-04-22 09:11:00,75.7,44.5,29.94,NE,37,1.9,3.5,33,0.00,CLR,,0.00,54.0,WeatherDisplay:10.37,2013-04-22 16:11:00,
2013-04-22 09:16:00,75.9,42.2,29.94,NE,53,2.8,5.8,30,0.00,CLR,,0.00,56.0,WeatherDisplay:10.37,2013-04-22 16:16:00,
2013-04-22 09:21:00,75.9,43.9,29.94,NE,41,4.3,5.8,32,0.00,CLR,,0.00,56.0,WeatherDisplay:10.37,2013-04-22 16:21:00,
2013-04-22 09:26:00,76.2,43.3,29.94,NE,42,3.2,6.0,31,0.00,CLR,,0.00,58.0,WeatherDisplay:10.37,2013-04-22 16:26:00,
2013-04-22 09:31:00,76.3,42.6,29.94,NE,43,4.4,6.9,30,0.00,CLR,,0.00,60.0,WeatherDisplay:10.37,2013-04-22 16:31:00,
2013-04-22 09:36:00,76.5,44.4,29.94,NE,56,2.5,3.5,32,0.00,CLR,,0.00,62.0,WeatherDisplay:10.37,2013-04-22 16:36:00,
2013-04-22 09:41:00,76.8,43.0,29.94,East,91,4.8,8.1,30,0.00,CLR,,0.00,63.0,WeatherDisplay:10.37,2013-04-22 16:41:00,
2013-04-22 09:46:00,76.8,43.9,29.94,East,91,2.0,3.5,31,0.00,CLR,,0.00,67.0,WeatherDisplay:10.37,2013-04-22 16:46:00,
2013-04-22 09:51:00,77.0,43.2,29.94,NE,41,5.3,8.1,30,0.00,CLR,,0.00,116.0,WeatherDisplay:10.37,2013-04-22 16:51:00,
2013-04-22 09:56:00,77.4,44.4,29.94,ENE,64,3.8,5.8,31,0.00,CLR,,0.00,239.0,WeatherDisplay:10.37,2013-04-22 16:56:00,
2013-04-22 10:01:00,77.8,43.0,29.94,NNE,26,3.0,6.9,29,0.00,CLR,,0.00,413.0,WeatherDisplay:10.37,2013-04-22 17:01:00,
2013-04-22 10:06:00,77.9,44.0,29.94,ENE,66,5.7,9.2,30,0.00,CLR,,0.00,578.0,WeatherDisplay:10.37,2013-04-22 17:06:00,
2013-04-22 10:11:00,77.9,43.1,29.94,NE,42,3.9,8.1,29,0.00,CLR,,0.00,677.0,WeatherDisplay:10.37,2013-04-22 17:11:00,
2013-04-22 10:16:00,77.9,43.1,29.94,NNE,17,3.6,7.0,29,0.00,CLR,,0.00,701.0,WeatherDisplay:10.37,2013-04-22 17:16:00,
2013-04-22 10:21:00,78.1,44.1,29.94,NNE,22,5.4,6.9,30,0.00,CLR,,0.00,715.0,WeatherDisplay:10.37,2013-04-22 17:21:00,
2013-04-22 10:26:00,78.6,43.7,29.94,NE,49,1.2,3.5,29,0.00,CLR,,0.00,726.0,WeatherDisplay:10.37,2013-04-22 17:26:00,
2013-04-22 10:31:00,79.1,43.2,29.94,NNE,26,3.2,5.0,28,0.00,CLR,,0.00,740.0,WeatherDisplay:10.37,2013-04-22 17:31:00,
2013-04-22 10:36:00,79.7,43.7,29.94,NNE,23,3.9,5.8,28,0.00,CLR,,0.00,756.0,WeatherDisplay:10.37,2013-04-22 17:36:00,
2013-04-22 10:41:00,80.2,44.1,29.95,NE,39,4.7,6.9,28,0.00,CLR,,0.00,768.0,WeatherDisplay:10.37,2013-04-22 17:41:00,
2013-04-22 10:46:00,80.7,43.6,29.95,NNE,21,5.0,6.9,27,0.00,CLR,,0.00,782.0,WeatherDisplay:10.37,2013-04-22 17:46:00,
2013-04-22 10:51:00,81.1,43.9,29.95,North,357,0.4,2.3,27,0.00,CLR,,0.00,789.0,WeatherDisplay:10.37,2013-04-22 17:51:00,
2013-04-22 10:56:00,81.4,43.2,29.95,NE,42,4.4,5.8,26,0.00,CLR,,0.00,800.0,WeatherDisplay:10.37,2013-04-22 17:56:00,
2013-04-22 11:01:00,81.8,43.6,29.95,NE,39,5.4,6.0,26,0.00,CLR,,0.00,810.0,WeatherDisplay:10.37,2013-04-22 18:01:00,
2013-04-22 11:06:00,81.9,43.6,29.95,NNE,28,3.7,6.9,26,0.00,CLR,,0.00,821.0,WeatherDisplay:10.37,2013-04-22 18:06:00,
2013-04-22 11:11:00,82.2,43.9,29.94,NNE,22,2.9,5.0,26,0.00,CLR,,0.00,833.0,WeatherDisplay:10.37,2013-04-22 18:11:00,
2013-04-22 11:16:00,82.6,44.2,29.94,NNW,343,1.8,3.5,26,0.00,CLR,,0.00,812.0,WeatherDisplay:10.37,2013-04-22 18:16:00,
2013-04-22 11:21:00,82.9,43.5,29.94,NW,316,2.6,3.5,25,0.00,CLR,,0.00,849.0,WeatherDisplay:10.37,2013-04-22 18:21:00,
2013-04-22 11:26:00,83.3,42.7,29.94,NNE,17,1.7,3.5,24,0.00,CLR,,0.00,853.0,WeatherDisplay:10.37,2013-04-22 18:26:00,
2013-04-22 11:31:00,83.4,44.9,29.94,NNW,343,0.1,2.3,26,0.00,CLR,,0.00,868.0,WeatherDisplay:10.37,2013-04-22 18:31:00,
2013-04-22 11:36:00,83.5,42.9,29.94,East,82,2.8,4.0,24,0.00,CLR,,0.00,874.0,WeatherDisplay:10.37,2013-04-22 18:36:00,
2013-04-22 11:41:00,83.6,43.0,29.94,SE,146,1.3,3.5,24,0.00,CLR,,0.00,881.0,WeatherDisplay:10.37,2013-04-22 18:41:00,
2013-04-22 11:46:00,84.0,44.4,29.94,North,5,1.0,3.5,25,0.00,CLR,,0.00,891.0,WeatherDisplay:10.37,2013-04-22 18:46:00,
2013-04-22 11:51:00,84.3,43.6,29.94,North,4,3.0,3.5,24,0.00,CLR,,0.00,896.0,WeatherDisplay:10.37,2013-04-22 18:51:00,
2013-04-22 11:56:00,84.7,45.0,29.93,North,10,2.5,3.5,25,0.00,CLR,,0.00,905.0,WeatherDisplay:10.37,2013-04-22 18:56:00,
2013-04-22 12:01:00,85.1,45.3,29.93,NNW,347,1.2,2.3,25,0.00,CLR,,0.00,907.0,WeatherDisplay:10.37,2013-04-22 19:01:00,
2013-04-22 12:06:00,85.4,42.2,29.93,North,352,2.1,5.0,22,0.00,CLR,,0.00,914.0,WeatherDisplay:10.37,2013-04-22 19:06:00,
2013-04-22 12:11:00,85.3,43.3,29.93,NNW,336,1.3,2.3,23,0.00,CLR,,0.00,919.0,WeatherDisplay:10.37,2013-04-22 19:11:00,
2013-04-22 12:16:00,85.3,42.1,29.93,NE,42,4.4,6.9,22,0.00,CLR,,0.00,923.0,WeatherDisplay:10.37,2013-04-22 19:16:00,
2013-04-22 12:21:00,85.4,42.2,29.92,ENE,68,3.4,4.0,22,0.00,CLR,,0.00,930.0,WeatherDisplay:10.37,2013-04-22 19:21:00,
2013-04-22 12:26:00,85.5,42.3,29.92,NNE,26,0.8,3.5,22,0.00,CLR,,0.00,932.0,WeatherDisplay:10.37,2013-04-22 19:26:00,
2013-04-22 12:31:00,85.6,43.5,29.92,NE,36,3.1,4.6,23,0.00,CLR,,0.00,935.0,WeatherDisplay:10.37,2013-04-22 19:31:00,
2013-04-22 12:36:00,85.9,43.8,29.92,North,8,2.9,4.0,23,0.00,CLR,,0.00,939.0,WeatherDisplay:10.37,2013-04-22 19:36:00,
2013-04-22 12:41:00,86.2,44.0,29.92,NNW,329,1.3,3.5,23,0.00,CLR,,0.00,940.0,WeatherDisplay:10.37,2013-04-22 19:41:00,
2013-04-22 12:46:00,86.7,45.6,29.92,NW,317,1.5,2.3,24,0.00,CLR,,0.00,939.0,WeatherDisplay:10.37,2013-04-22 19:46:00,
2013-04-22 12:51:00,86.8,43.4,29.91,WSW,250,3.9,6.9,22,0.00,CLR,,0.00,942.0,WeatherDisplay:10.37,2013-04-22 19:51:00,
2013-04-22 12:56:00,86.8,43.4,29.91,NW,309,5.0,7.0,22,0.00,CLR,,0.00,946.0,WeatherDisplay:10.37,2013-04-22 19:56:00,
2013-04-22 13:01:00,86.8,42.2,29.91,WNW,299,0.3,3.5,21,0.00,CLR,,0.00,947.0,WeatherDisplay:10.37,2013-04-22 20:01:00,
2013-04-22 13:06:00,87.1,42.4,29.91,West,280,4.6,9.2,21,0.00,CLR,,0.00,949.0,WeatherDisplay:10.37,2013-04-22 20:06:00,
2013-04-22 13:11:00,87.5,42.8,29.91,NNW,338,3.1,9.2,21,0.00,CLR,,0.00,947.0,WeatherDisplay:10.37,2013-04-22 20:11:00,
2013-04-22 13:16:00,88.1,43.2,29.91,West,271,5.9,8.1,21,0.00,CLR,,0.00,947.0,WeatherDisplay:10.37,2013-04-22 20:16:00,
2013-04-22 13:21:00,87.9,43.1,29.90,NW,322,2.7,4.6,21,0.00,CLR,,0.00,946.0,WeatherDisplay:10.37,2013-04-22 20:21:00,
2013-04-22 13:26:00,88.0,44.4,29.90,North,355,1.9,3.5,22,0.00,CLR,,0.00,944.0,WeatherDisplay:10.37,2013-04-22 20:26:00,
2013-04-22 13:31:00,88.2,43.3,29.90,NW,321,6.0,10.4,21,0.00,CLR,,0.00,940.0,WeatherDisplay:10.37,2013-04-22 20:31:00,
2013-04-22 13:36:00,88.5,43.6,29.90,WNW,289,5.8,8.1,21,0.00,CLR,,0.00,940.0,WeatherDisplay:10.37,2013-04-22 20:36:00,
2013-04-22 13:41:00,88.9,42.6,29.90,NW,326,4.2,6.9,20,0.00,CLR,,0.00,937.0,WeatherDisplay:10.37,2013-04-22 20:41:00,
2013-04-22 13:46:00,89.2,41.5,29.90,NW,325,1.6,3.5,19,0.00,CLR,,0.00,937.0,WeatherDisplay:10.37,2013-04-22 20:46:00,
2013-04-22 13:51:00,89.3,40.2,29.89,NNW,334,2.9,5.8,18,0.00,CLR,,0.00,930.0,WeatherDisplay:10.37,2013-04-22 20:51:00,
2013-04-22 13:56:00,89.5,37.4,29.89,North,353,1.8,4.6,16,0.00,CLR,,0.00,928.0,WeatherDisplay:10.37,2013-04-22 20:56:00,
2013-04-22 14:01:00,89.8,40.6,29.89,North,359,3.2,4.6,18,0.00,CLR,,0.00,919.0,WeatherDisplay:10.37,2013-04-22 21:01:00,
2013-04-22 14:06:00,90.0,39.3,29.89,North,355,3.1,4.6,17,0.00,CLR,,0.00,914.0,WeatherDisplay:10.37,2013-04-22 21:06:00,
2013-04-22 14:11:00,90.1,40.9,29.89,NNW,345,2.3,3.5,18,0.00,CLR,,0.00,905.0,WeatherDisplay:10.37,2013-04-22 21:11:00,
2013-04-22 14:16:00,90.3,39.6,29.88,North,355,2.8,4.6,17,0.00,CLR,,0.00,904.0,WeatherDisplay:10.37,2013-04-22 21:16:00,
2013-04-22 14:21:00,90.4,38.1,29.88,NW,309,3.2,6.9,16,0.00,CLR,,0.00,898.0,WeatherDisplay:10.37,2013-04-22 21:21:00,
2013-04-22 14:26:00,90.1,36.2,29.88,NW,314,3.9,5.8,15,0.00,CLR,,0.00,891.0,WeatherDisplay:10.37,2013-04-22 21:26:00,
2013-04-22 14:31:00,90.1,37.9,29.88,WNW,288,6.7,8.1,16,0.00,CLR,,0.00,879.0,WeatherDisplay:10.37,2013-04-22 21:31:00,
2013-04-22 14:36:00,89.9,39.2,29.88,WNW,296,5.1,11.5,17,0.00,CLR,,0.00,874.0,WeatherDisplay:10.37,2013-04-22 21:36:00,
2013-04-22 14:41:00,89.8,39.2,29.88,WNW,295,1.3,4.6,17,0.00,CLR,,0.00,861.0,WeatherDisplay:10.37,2013-04-22 21:41:00,
2013-04-22 14:46:00,89.9,37.7,29.88,NW,304,6.4,10.4,16,0.00,CLR,,0.00,856.0,WeatherDisplay:10.37,2013-04-22 21:46:00,
2013-04-22 14:51:00,90.0,37.8,29.87,WNW,300,4.0,5.8,16,0.00,CLR,,0.00,853.0,WeatherDisplay:10.37,2013-04-22 21:51:00,
2013-04-22 14:56:00,90.0,37.8,29.87,NNW,337,3.4,5.8,16,0.00,CLR,,0.00,842.0,WeatherDisplay:10.37,2013-04-22 21:56:00,
2013-04-22 15:01:00,90.2,36.3,29.87,NW,325,2.1,4.0,15,0.00,CLR,,0.00,835.0,WeatherDisplay:10.37,2013-04-22 22:01:00,
2013-04-22 15:06:00,90.4,38.1,29.87,WNW,297,3.7,6.9,16,0.00,CLR,,0.00,824.0,WeatherDisplay:10.37,2013-04-22 22:06:00,
2013-04-22 15:11:00,90.6,38.3,29.86,NW,325,2.0,3.5,16,0.00,CLR,,0.00,812.0,WeatherDisplay:10.37,2013-04-22 22:11:00,
2013-04-22 15:16:00,90.6,34.9,29.86,NNE,20,2.6,5.8,14,0.00,CLR,,0.00,800.0,WeatherDisplay:10.37,2013-04-22 22:16:00,
2013-04-22 15:21:00,90.7,36.7,29.86,NNW,335,2.2,3.5,15,0.00,CLR,,0.00,789.0,WeatherDisplay:10.37,2013-04-22 22:21:00,
2013-04-22 15:26:00,90.8,38.4,29.86,NW,322,5.4,8.0,16,0.00,CLR,,0.00,782.0,WeatherDisplay:10.37,2013-04-22 22:26:00,
2013-04-22 15:31:00,90.8,35.0,29.86,WNW,292,5.1,8.1,14,0.00,CLR,,0.00,770.0,WeatherDisplay:10.37,2013-04-22 22:31:00,
2013-04-22 15:36:00,90.8,35.0,29.85,NW,322,5.3,9.2,14,0.00,CLR,,0.00,758.0,WeatherDisplay:10.37,2013-04-22 22:36:00,
2013-04-22 15:41:00,90.8,36.8,29.85,WNW,285,7.6,11.0,15,0.00,CLR,,0.00,745.0,WeatherDisplay:10.37,2013-04-22 22:41:00,
2013-04-22 15:46:00,90.7,36.7,29.85,NW,313,4.8,5.8,15,0.00,CLR,,0.00,729.0,WeatherDisplay:10.37,2013-04-22 22:46:00,
2013-04-22 15:51:00,90.9,38.5,29.85,NNW,335,5.6,9.2,16,0.00,CLR,,0.00,717.0,WeatherDisplay:10.37,2013-04-22 22:51:00,
2013-04-22 15:56:00,91.1,38.7,29.84,NW,320,1.8,3.5,16,0.00,CLR,,0.00,707.0,WeatherDisplay:10.37,2013-04-22 22:56:00,
2013-04-22 16:01:00,91.2,37.1,29.84,NNW,327,5.3,11.5,15,0.00,CLR,,0.00,691.0,WeatherDisplay:10.37,2013-04-22 23:01:00,
2013-04-22 16:06:00,91.0,38.6,29.84,NW,305,4.1,9.0,16,0.00,CLR,,0.00,680.0,WeatherDisplay:10.37,2013-04-22 23:06:00,
2013-04-22 16:11:00,90.9,38.5,29.84,NW,322,2.7,6.9,16,0.00,CLR,,0.00,661.0,WeatherDisplay:10.37,2013-04-22 23:11:00,
2013-04-22 16:16:00,90.8,36.8,29.84,WNW,295,8.3,12.7,15,0.00,CLR,,0.00,647.0,WeatherDisplay:10.37,2013-04-22 23:16:00,
2013-04-22 16:21:00,90.5,36.5,29.83,NW,306,6.9,10.0,15,0.00,CLR,,0.00,633.0,WeatherDisplay:10.37,2013-04-22 23:21:00,
2013-04-22 16:26:00,90.2,36.3,29.84,WNW,299,9.1,11.5,15,0.00,CLR,,0.00,619.0,WeatherDisplay:10.37,2013-04-22 23:26:00,
2013-04-22 16:31:00,90.3,36.4,29.83,WNW,302,3.2,6.0,15,0.00,CLR,,0.00,605.0,WeatherDisplay:10.37,2013-04-22 23:31:00,
2013-04-22 16:36:00,90.3,36.4,29.83,NNW,331,5.0,11.5,15,0.00,CLR,,0.00,592.0,WeatherDisplay:10.37,2013-04-22 23:36:00,
2013-04-22 16:41:00,90.2,34.6,29.83,WNW,296,5.9,8.1,14,0.00,CLR,,0.00,578.0,WeatherDisplay:10.37,2013-04-22 23:41:00,
2013-04-22 16:46:00,90.4,34.7,29.83,NW,318,6.4,8.1,14,0.00,CLR,,0.00,557.0,WeatherDisplay:10.37,2013-04-22 23:46:00,
2013-04-22 16:51:00,90.5,36.5,29.83,NNW,330,2.1,6.0,15,0.00,CLR,,0.00,545.0,WeatherDisplay:10.37,2013-04-22 23:51:00,
2013-04-22 16:56:00,90.7,38.3,29.83,NW,323,2.8,6.9,16,0.00,CLR,,0.00,526.0,WeatherDisplay:10.37,2013-04-22 23:56:00,
2013-04-22 17:01:00,90.8,36.8,29.83,NNW,335,3.6,6.9,15,0.00,CLR,,0.00,506.0,WeatherDisplay:10.37,2013-04-23 00:01:00,
2013-04-22 17:06:00,90.8,38.4,29.83,NW,323,4.5,6.9,16,0.00,CLR,,0.00,489.0,WeatherDisplay:10.37,2013-04-23 00:06:00,
2013-04-22 17:11:00,90.7,39.9,29.83,NW,304,4.7,7.0,17,0.00,CLR,,0.00,471.0,WeatherDisplay:10.37,2013-04-23 00:11:00,
2013-04-22 17:16:00,90.6,41.3,29.83,NW,313,5.9,10.4,18,0.00,CLR,,0.00,455.0,WeatherDisplay:10.37,2013-04-23 00:16:00,
2013-04-22 17:21:00,90.4,42.5,29.83,West,280,7.8,10.4,19,0.00,CLR,,0.00,438.0,WeatherDisplay:10.37,2013-04-23 00:21:00,
2013-04-22 17:26:00,90.0,42.2,29.83,NW,310,8.2,11.5,19,0.00,CLR,,0.00,420.0,WeatherDisplay:10.37,2013-04-23 00:26:00,
2013-04-22 17:31:00,89.8,42.0,29.83,West,270,7.5,11.5,19,0.00,CLR,,0.00,404.0,WeatherDisplay:10.37,2013-04-23 00:31:00,
2013-04-22 17:36:00,89.6,41.9,29.83,WNW,303,5.7,9.2,19,0.00,CLR,,0.00,387.0,WeatherDisplay:10.37,2013-04-23 00:36:00,
2013-04-22 17:41:00,89.4,41.7,29.83,West,277,3.5,5.8,19,0.00,CLR,,0.00,369.0,WeatherDisplay:10.37,2013-04-23 00:41:00,
2013-04-22 17:46:00,89.3,41.6,29.83,WNW,293,6.5,8.1,19,0.00,CLR,,0.00,353.0,WeatherDisplay:10.37,2013-04-23 00:46:00,
2013-04-22 17:51:00,89.3,41.6,29.83,West,281,10.1,13.8,19,0.00,CLR,,0.00,334.0,WeatherDisplay:10.37,2013-04-23 00:51:00,
2013-04-22 17:56:00,89.2,41.5,29.83,WNW,303,8.7,11.5,19,0.00,CLR,,0.00,316.0,WeatherDisplay:10.37,2013-04-23 00:56:00,
2013-04-22 18:01:00,89.0,41.4,29.83,WNW,295,7.7,11.5,19,0.00,CLR,,0.00,301.0,WeatherDisplay:10.37,2013-04-23 01:01:00,
2013-04-22 18:06:00,88.7,41.1,29.83,WNW,302,7.9,11.5,19,0.00,CLR,,0.00,281.0,WeatherDisplay:10.37,2013-04-23 01:06:00,
2013-04-22 18:11:00,88.6,41.1,29.83,WNW,296,9.9,11.5,19,0.00,CLR,,0.00,264.0,WeatherDisplay:10.37,2013-04-23 01:11:00,
2013-04-22 18:16:00,88.4,40.9,29.83,WNW,296,2.7,3.5,19,0.00,CLR,,0.00,248.0,WeatherDisplay:10.37,2013-04-23 01:16:00,
2013-04-22 18:21:00,88.2,39.3,29.83,WNW,287,6.1,9.2,18,0.00,CLR,,0.00,232.0,WeatherDisplay:10.37,2013-04-23 01:21:00,
2013-04-22 18:26:00,88.0,39.2,29.83,WNW,291,4.8,6.9,18,0.00,CLR,,0.00,214.0,WeatherDisplay:10.37,2013-04-23 01:26:00,
2013-04-22 18:31:00,87.9,39.1,29.83,NW,305,5.7,9.2,18,0.00,CLR,,0.00,195.0,WeatherDisplay:10.37,2013-04-23 01:31:00,
2013-04-22 18:36:00,87.7,37.5,29.82,NW,307,6.3,6.9,17,0.00,CLR,,0.00,174.0,WeatherDisplay:10.37,2013-04-23 01:36:00,
2013-04-22 18:41:00,87.5,37.3,29.82,WNW,282,6.4,10.4,17,0.00,CLR,,0.00,155.0,WeatherDisplay:10.37,2013-04-23 01:41:00,
2013-04-22 18:46:00,87.4,38.7,29.82,WNW,299,4.6,6.0,18,0.00,CLR,,0.00,135.0,WeatherDisplay:10.37,2013-04-23 01:46:00,
2013-04-22 18:51:00,87.1,38.4,29.82,NW,322,6.9,9.2,18,0.00,CLR,,0.00,116.0,WeatherDisplay:10.37,2013-04-23 01:51:00,
2013-04-22 18:56:00,86.7,39.5,29.82,NW,323,2.6,8.1,19,0.00,CLR,,0.00,102.0,WeatherDisplay:10.37,2013-04-23 01:56:00,
2013-04-22 19:01:00,86.4,40.6,29.82,NW,315,2.4,3.5,20,0.00,CLR,,0.00,86.0,WeatherDisplay:10.37,2013-04-23 02:01:00,
2013-04-22 19:06:00,85.9,41.4,29.82,NW,320,1.1,3.5,21,0.00,CLR,,0.00,70.0,WeatherDisplay:10.37,2013-04-23 02:06:00,
2013-04-22 19:11:00,85.5,42.3,29.82,NW,320,1.5,3.5,22,0.00,CLR,,0.00,56.0,WeatherDisplay:10.37,2013-04-23 02:11:00,
2013-04-22 19:17:00,85.1,43.1,29.82,NW,325,1.0,2.3,23,0.00,CLR,,0.00,44.0,WeatherDisplay:10.37,2013-04-23 02:17:00,
2013-04-22 19:22:00,84.7,42.8,29.82,NW,307,0.2,1.2,23,0.00,CLR,,0.00,35.0,WeatherDisplay:10.37,2013-04-23 02:22:00,
2013-04-22 19:27:00,84.0,46.4,29.82,NNE,28,2.2,3.5,27,0.00,CLR,,0.00,26.0,WeatherDisplay:10.37,2013-04-23 02:27:00,
2013-04-22 19:32:00,82.9,49.2,29.83,NNE,22,1.6,3.5,31,0.00,CLR,,0.00,21.0,WeatherDisplay:10.37,2013-04-23 02:32:00,
2013-04-22 19:37:00,81.6,52.1,29.83,NE,53,1.8,3.5,36,0.00,CLR,,0.00,14.0,WeatherDisplay:10.37,2013-04-23 02:37:00,
2013-04-22 19:42:00,80.1,52.9,29.83,ENE,62,2.3,2.3,39,0.00,CLR,,0.00,11.0,WeatherDisplay:10.37,2013-04-23 02:42:00,
2013-04-22 19:47:00,78.2,53.9,29.83,East,93,3.0,4.0,43,0.00,CLR,,0.00,7.0,WeatherDisplay:10.37,2013-04-23 02:47:00,
2013-04-22 19:52:00,76.4,54.1,29.83,East,98,3.3,3.5,46,0.00,CLR,,0.00,5.0,WeatherDisplay:10.37,2013-04-23 02:52:00,
2013-04-22 19:57:00,74.9,53.3,29.83,East,97,1.5,3.5,47,0.00,CLR,,0.00,0.0,WeatherDisplay:10.37,2013-04-23 02:57:00,
2013-04-22 20:02:00,73.5,53.7,29.83,SE,141,4.6,6.0,50,0.00,CLR,,0.00,0.0,WeatherDisplay:10.37,2013-04-23 03:02:00,
2013-04-22 20:07:00,71.8,52.7,29.83,SE,130,5.5,6.0,51,0.00,CLR,,0.00,0.0,WeatherDisplay:10.37,2013-04-23 03:07:00,
2013-04-22 20:12:00,70.6,53.1,29.83,SE,125,2.2,4.0,54,0.00,CLR,,0.00,0.0,WeatherDisplay:10.37,2013-04-23 03:12:00,
2013-04-22 20:17:00,69.9,52.5,29.84,SE,126,1.0,3.5,54,0.00,CLR,,0.00,0.0,WeatherDisplay:10.37,2013-04-23 03:17:00,
2013-04-22 20:22:00,69.5,52.6,29.84,East,87,1.7,2.3,55,0.00,CLR,,0.00,0.0,WeatherDisplay:10.37,2013-04-23 03:22:00,
2013-04-22 20:27:00,69.3,52.9,29.84,East,87,1.7,2.3,56,0.00,CLR,,0.00,0.0,WeatherDisplay:10.37,2013-04-23 03:27:00,
2013-04-22 20:32:00,68.9,52.6,29.84,East,91,2.1,3.5,56,0.00,CLR,,0.00,0.0,WeatherDisplay:10.37,2013-04-23 03:32:00,
2013-04-22 20:37:00,68.3,52.5,29.85,East,93,3.8,4.6,57,0.00,CLR,,0.00,0.0,WeatherDisplay:10.37,2013-04-23 03:37:00,
2013-04-22 20:42:00,67.7,52.4,29.85,ESE,115,5.2,5.8,58,0.00,CLR,,0.00,0.0,WeatherDisplay:10.37,2013-04-23 03:42:00,
2013-04-22 20:47:00,66.9,51.6,29.85,SE,138,3.7,4.6,58,0.00,CLR,,0.00,0.0,WeatherDisplay:10.37,2013-04-23 03:47:00,
2013-04-22 20:52:00,66.5,51.7,29.85,SE,137,5.1,6.9,59,0.00,CLR,,0.00,0.0,WeatherDisplay:10.37,2013-04-23 03:52:00,
2013-04-22 20:57:00,66.2,51.9,29.85,SE,139,3.1,3.5,60,0.00,CLR,,0.00,0.0,WeatherDisplay:10.37,2013-04-23 03:57:00,
2013-04-22 21:01:00,66.1,51.8,29.85,SE,139,2.1,3.5,60,0.00,CLR,,0.00,0.0,WeatherDisplay:10.37,2013-04-23 04:01:00,
2013-04-22 21:06:00,66.1,51.4,29.85,SE,139,0.8,2.0,59,0.00,CLR,,0.00,0.0,WeatherDisplay:10.37,2013-04-23 04:06:00,
2013-04-22 21:11:00,66.0,50.3,29.85,ENE,74,2.2,3.5,57,0.00,CLR,,0.00,0.0,WeatherDisplay:10.37,2013-04-23 04:11:00,
2013-04-22 21:16:00,65.9,49.8,29.85,ENE,74,1.5,3.5,56,0.00,CLR,,0.00,0.0,WeatherDisplay:10.37,2013-04-23 04:16:00,
2013-04-22 21:21:00,65.8,50.1,29.85,ENE,74,1.9,2.3,57,0.00,CLR,,0.00,0.0,WeatherDisplay:10.37,2013-04-23 04:21:00,
2013-04-22 21:26:00,65.7,49.6,29.86,ENE,74,1.7,2.3,56,0.00,CLR,,0.00,0.0,WeatherDisplay:10.37,2013-04-23 04:26:00,
2013-04-22 21:31:00,65.8,49.7,29.86,ENE,75,1.2,2.3,56,0.00,CLR,,0.00,0.0,WeatherDisplay:10.37,2013-04-23 04:31:00,
2013-04-22 21:36:00,65.8,49.2,29.86,SE,126,2.8,3.5,55,0.00,CLR,,0.00,0.0,WeatherDisplay:10.37,2013-04-23 04:36:00,
2013-04-22 21:41:00,65.8,48.2,29.86,ESE,122,1.9,3.5,53,0.00,CLR,,0.00,0.0,WeatherDisplay:10.37,2013-04-23 04:41:00,
2013-04-22 21:46:00,65.8,48.2,29.86,ESE,122,1.6,2.3,53,0.00,CLR,,0.00,0.0,WeatherDisplay:10.37,2013-04-23 04:46:00,
2013-04-22 21:51:00,65.8,49.2,29.86,ESE,114,3.3,3.5,55,0.00,CLR,,0.00,0.0,WeatherDisplay:10.37,2013-04-23 04:51:00,
2013-04-22 21:56:00,65.6,50.0,29.86,East,101,1.7,3.5,57,0.00,CLR,,0.00,0.0,WeatherDisplay:10.37,2013-04-23 04:56:00,
2013-04-22 22:01:00,65.4,50.7,29.86,East,101,1.3,2.3,59,0.00,CLR,,0.00,0.0,WeatherDisplay:10.37,2013-04-23 05:01:00,
2013-04-22 22:06:00,65.0,51.2,29.87,ENE,68,1.8,3.5,61,0.00,CLR,,0.00,0.0,WeatherDisplay:10.37,2013-04-23 05:06:00,
2013-04-22 22:11:00,64.7,50.9,29.87,ENE,65,2.9,3.5,61,0.00,CLR,,0.00,0.0,WeatherDisplay:10.37,2013-04-23 05:11:00,
2013-04-22 22:16:00,64.2,50.0,29.86,SE,143,2.6,3.5,60,0.00,CLR,,0.00,0.0,WeatherDisplay:10.37,2013-04-23 05:16:00,
2013-04-22 22:21:00,63.7,46.2,29.86,SE,134,4.6,7.0,53,0.00,CLR,,0.00,0.0,WeatherDisplay:10.37,2013-04-23 05:21:00,
2013-04-22 22:26:00,63.5,46.1,29.86,SE,137,4.5,6.9,53,0.00,CLR,,0.00,0.0,WeatherDisplay:10.37,2013-04-23 05:26:00,
2013-04-22 22:31:00,63.7,46.2,29.86,SE,137,4.8,6.0,53,0.00,CLR,,0.00,0.0,WeatherDisplay:10.37,2013-04-23 05:31:00,
2013-04-22 22:36:00,63.9,45.9,29.86,SSE,149,3.5,4.6,52,0.00,CLR,,0.00,0.0,WeatherDisplay:10.37,2013-04-23 05:36:00,
2013-04-22 22:41:00,64.3,44.2,29.86,SSE,149,3.2,4.0,48,0.00,CLR,,0.00,0.0,WeatherDisplay:10.37,2013-04-23 05:41:00,
2013-04-22 22:46:00,65.2,43.3,29.86,SSE,149,2.1,3.5,45,0.00,CLR,,0.00,0.0,WeatherDisplay:10.37,2013-04-23 05:46:00,
2013-04-22 22:51:00,66.1,42.3,29.85,SSE,149,1.5,2.3,42,0.00,CLR,,0.00,0.0,WeatherDisplay:10.37,2013-04-23 05:51:00,
2013-04-22 22:56:00,66.9,42.4,29.85,SSE,149,2.0,3.0,41,0.00,CLR,,0.00,0.0,WeatherDisplay:10.37,2013-04-23 05:56:00,
2013-04-22 23:01:00,67.1,42.0,29.85,South,187,2.0,3.5,40,0.00,CLR,,0.00,0.0,WeatherDisplay:10.37,2013-04-23 06:01:00,
2013-04-22 23:06:00,67.2,41.4,29.85,South,187,2.2,3.5,39,0.00,CLR,,0.00,0.0,WeatherDisplay:10.37,2013-04-23 06:06:00,
2013-04-22 23:11:00,67.2,40.7,29.85,South,191,2.3,3.5,38,0.00,CLR,,0.00,0.0,WeatherDisplay:10.37,2013-04-23 06:11:00,
2013-04-22 23:16:00,67.3,39.4,29.85,South,191,0.7,2.3,36,0.00,CLR,,0.00,0.0,WeatherDisplay:10.37,2013-04-23 06:16:00,
2013-04-22 23:21:00,67.4,39.5,29.85,South,191,1.2,2.3,36,0.00,CLR,,0.00,0.0,WeatherDisplay:10.37,2013-04-23 06:21:00,
2013-04-22 23:26:00,67.5,38.9,29.85,WSW,255,3.7,5.0,35,0.00,CLR,,0.00,0.0,WeatherDisplay:10.37,2013-04-23 06:26:00,
2013-04-22 23:31:00,67.6,39.7,29.85,WSW,255,1.3,4.6,36,0.00,CLR,,0.00,0.0,WeatherDisplay:10.37,2013-04-23 06:31:00,
2013-04-22 23:36:00,67.4,39.5,29.85,WSW,241,2.6,4.6,36,0.00,CLR,,0.00,0.0,WeatherDisplay:10.37,2013-04-23 06:36:00,
2013-04-22 23:41:00,67.4,39.5,29.84,WSW,241,3.0,3.5,36,0.00,CLR,,0.00,0.0,WeatherDisplay:10.37,2013-04-23 06:41:00,
2013-04-22 23:46:00,67.4,39.5,29.85,West,271,4.2,5.8,36,0.00,CLR,,0.00,0.0,WeatherDisplay:10.37,2013-04-23 06:46:00,
2013-04-22 23:51:00,67.4,40.2,29.85,WNW,294,4.9,5.0,37,0.00,CLR,,0.00,0.0,WeatherDisplay:10.37,2013-04-23 06:51:00,
2013-04-22 23:56:00,67.4,40.2,29.85,NW,314,2.0,4.6,37,0.00,CLR,,0.00,0.0,WeatherDisplay:10.37,2013-04-23 06:56:00,